createdAt,value
2018-09-24T00:00:56.179Z,72.11
2018-09-24T00:03:25.443Z,72.12
2018-09-24T00:05:54.688Z,72.43
2018-09-24T00:08:23.952Z,72.33
2018-09-24T00:10:53.252Z,72.49
2018-09-24T00:13:22.471Z,72.08
2018-09-24T00:15:51.687Z,72.33
2018-09-24T00:18:20.868Z,72.47
2018-09-24T00:20:50.102Z,72.80
2018-09-24T00:23:19.328Z,72.05
2018-09-24T00:25:48.560Z,71.81
2018-09-24T00:28:17.774Z,71.77
2018-09-24T00:30:47.000Z,71.49
2018-09-24T00:33:16.207Z,71.62
2018-09-24T00:35:45.487Z,71.80
2018-09-24T00:38:14.783Z,71.46
2018-09-24T00:40:44.023Z,71.25
2018-09-24T00:43:13.299Z,71.29
2018-09-24T00:45:42.528Z,71.19
2018-09-24T00:48:11.803Z,71.02
2018-09-24T00:50:41.085Z,71.11
2018-09-24T00:53:10.318Z,70.96
2018-09-24T00:55:39.514Z,70.86
2018-09-24T00:58:08.754Z,71.12
2018-09-24T01:00:38.037Z,70.95
2018-09-24T01:03:07.324Z,70.73
2018-09-24T01:05:36.587Z,70.69
2018-09-24T01:08:06.099Z,70.83
2018-09-24T01:10:35.348Z,70.81
2018-09-24T01:13:04.573Z,71.10
2018-09-24T01:15:33.799Z,70.75
2018-09-24T01:18:02.996Z,70.84
2018-09-24T01:20:32.229Z,70.91
2018-09-24T01:23:01.513Z,70.95
2018-09-24T01:25:30.725Z,70.77
2018-09-24T01:27:59.972Z,70.61
2018-09-24T01:30:29.187Z,70.31
2018-09-24T01:32:58.395Z,70.19
2018-09-24T01:35:27.559Z,70.19
2018-09-24T01:37:56.803Z,69.90
2018-09-24T01:40:26.034Z,69.71
2018-09-24T01:42:55.285Z,69.54
2018-09-24T01:45:24.483Z,69.05
2018-09-24T01:47:53.693Z,69.43
2018-09-24T01:50:22.899Z,68.89
2018-09-24T01:52:52.159Z,69.15
2018-09-24T01:55:21.400Z,68.89
2018-09-24T01:57:50.681Z,68.68
2018-09-24T02:00:19.912Z,68.59
2018-09-24T02:02:49.132Z,68.18
2018-09-24T02:05:18.369Z,68.50
2018-09-24T02:07:47.605Z,68.44
2018-09-24T02:10:24.591Z,68.69
2018-09-24T02:12:57.534Z,68.54
2018-09-24T02:15:32.389Z,68.30
2018-09-24T02:18:01.825Z,68.32
2018-09-24T02:20:31.056Z,68.43
2018-09-24T02:23:00.269Z,68.30
2018-09-24T02:25:29.545Z,68.32
2018-09-24T02:27:58.775Z,68.33
2018-09-24T02:30:28.013Z,68.44
2018-09-24T02:32:57.280Z,67.94
2018-09-24T02:35:26.510Z,68.02
2018-09-24T02:37:55.753Z,67.65
2018-09-24T02:40:25.523Z,67.94
2018-09-24T02:42:54.827Z,68.15
2018-09-24T02:45:24.075Z,68.39
2018-09-24T02:47:53.314Z,68.24
2018-09-24T02:50:28.696Z,68.46
2018-09-24T02:52:57.958Z,68.57
2018-09-24T02:55:27.232Z,68.22
2018-09-24T02:57:56.435Z,68.09
2018-09-24T03:00:25.652Z,67.98
2018-09-24T03:02:54.956Z,68.08
2018-09-24T03:05:24.136Z,67.78
2018-09-24T03:07:53.307Z,67.88
2018-09-24T03:10:22.541Z,68.04
2018-09-24T03:12:52.893Z,67.88
2018-09-24T03:15:22.353Z,67.97
2018-09-24T03:17:51.538Z,68.05
2018-09-24T03:20:20.729Z,68.09
2018-09-24T03:22:49.933Z,68.06
2018-09-24T03:25:19.936Z,67.97
2018-09-24T03:27:49.147Z,67.96
2018-09-24T03:30:18.384Z,68.43
2018-09-24T03:32:47.649Z,67.70
2018-09-24T03:35:16.842Z,68.10
2018-09-24T03:37:46.104Z,68.03
2018-09-24T03:40:15.323Z,68.22
2018-09-24T03:42:44.540Z,68.37
2018-09-24T03:45:13.818Z,68.45
2018-09-24T03:47:43.087Z,68.30
2018-09-24T03:50:12.466Z,68.71
2018-09-24T03:52:41.744Z,68.61
2018-09-24T03:55:10.980Z,68.44
2018-09-24T03:57:40.227Z,68.30
2018-09-24T04:00:09.444Z,68.76
2018-09-24T04:02:38.995Z,68.98
2018-09-24T04:05:13.761Z,68.88
2018-09-24T04:07:48.218Z,69.16
2018-09-24T04:10:22.758Z,69.03
2018-09-24T04:12:57.343Z,69.15
2018-09-24T04:15:31.761Z,69.38
2018-09-24T04:18:06.218Z,69.12
2018-09-24T04:20:40.877Z,69.18
2018-09-24T04:23:15.559Z,69.14
2018-09-24T04:25:50.791Z,69.64
2018-09-24T04:28:25.558Z,69.62
2018-09-24T04:31:00.149Z,69.50
2018-09-24T04:33:34.734Z,69.67
2018-09-24T04:36:09.285Z,69.51
2018-09-24T04:38:43.789Z,69.45
2018-09-24T04:41:18.395Z,69.34
2018-09-24T04:43:52.990Z,68.58
2018-09-24T04:46:27.628Z,67.86
2018-09-24T04:49:02.310Z,67.35
2018-09-24T04:51:36.719Z,67.60
2018-09-24T04:54:11.218Z,68.11
2018-09-24T04:56:45.669Z,67.57
2018-09-24T04:59:20.118Z,67.49
2018-09-24T05:01:54.743Z,67.79
2018-09-24T05:04:29.257Z,68.47
2018-09-24T05:07:03.861Z,68.76
2018-09-24T05:09:38.391Z,69.19
2018-09-24T05:12:13.061Z,69.47
2018-09-24T05:14:47.633Z,69.58
2018-09-24T05:17:22.138Z,69.47
2018-09-24T05:19:56.832Z,69.51
2018-09-24T05:22:31.410Z,68.74
2018-09-24T05:25:05.974Z,68.41
2018-09-24T05:27:40.539Z,67.85
2018-09-24T05:30:15.115Z,67.83
2018-09-24T05:32:49.499Z,67.54
2018-09-24T05:35:23.977Z,67.08
2018-09-24T05:37:58.490Z,66.52
2018-09-24T05:40:32.915Z,66.52
2018-09-24T05:43:07.401Z,65.92
2018-09-24T05:45:41.948Z,66.33
2018-09-24T05:48:16.633Z,66.33
2018-09-24T05:50:51.267Z,66.19
2018-09-24T05:53:25.940Z,66.04
2018-09-24T05:56:00.389Z,65.86
2018-09-24T05:58:34.896Z,65.49
2018-09-24T06:01:09.504Z,65.41
2018-09-24T06:03:44.020Z,64.98
2018-09-24T06:06:18.686Z,64.93
2018-09-24T06:08:53.227Z,64.05
2018-09-24T06:11:27.632Z,64.24
2018-09-24T06:14:02.228Z,64.65
2018-09-24T06:16:36.902Z,64.28
2018-09-24T06:19:11.877Z,63.94
2018-09-24T06:21:46.390Z,64.40
2018-09-24T06:24:20.982Z,64.10
2018-09-24T06:26:55.610Z,64.08
2018-09-24T06:29:30.150Z,63.20
2018-09-24T06:32:04.704Z,62.82
2018-09-24T06:34:39.401Z,63.31
2018-09-24T06:37:13.920Z,63.24
2018-09-24T06:39:48.517Z,62.93
2018-09-24T06:42:23.202Z,62.21
2018-09-24T06:44:57.771Z,62.32
2018-09-24T06:47:32.402Z,61.67
2018-09-24T06:50:07.093Z,61.07
2018-09-24T06:52:41.741Z,61.22
2018-09-24T06:55:16.342Z,61.93
2018-09-24T06:57:50.988Z,61.58
2018-09-24T07:00:25.503Z,61.21
2018-09-24T07:02:59.945Z,62.30
2018-09-24T07:05:34.689Z,61.59
2018-09-24T07:08:09.117Z,61.20
2018-09-24T07:10:43.647Z,60.89
2018-09-24T07:13:18.165Z,60.31
2018-09-24T07:15:52.780Z,60.25
2018-09-24T07:18:27.395Z,59.77
2018-09-24T07:21:02.004Z,59.02
2018-09-24T07:23:36.519Z,58.21
2018-09-24T07:26:11.005Z,59.01
2018-09-24T07:28:45.496Z,59.61
2018-09-24T07:31:19.947Z,58.21
2018-09-24T07:41:02.905Z,58.25
2018-09-24T07:43:37.462Z,57.59
2018-09-24T07:46:12.023Z,57.89
2018-09-24T07:48:46.499Z,57.74
2018-09-24T07:51:20.966Z,58.39
2018-09-24T07:53:55.471Z,57.84
2018-09-24T07:56:29.952Z,56.63
2018-09-24T07:59:04.589Z,55.06
2018-09-24T08:01:39.236Z,55.32
2018-09-24T08:04:13.636Z,56.61
2018-09-24T08:06:48.274Z,57.89
2018-09-24T08:09:22.903Z,57.25
2018-09-24T08:11:57.535Z,56.50
2018-09-24T08:14:32.035Z,55.79
2018-09-24T08:17:06.494Z,55.59
2018-09-24T08:19:41.166Z,56.06
2018-09-24T08:22:15.800Z,55.63
2018-09-24T08:24:50.206Z,55.95
2018-09-24T08:27:24.662Z,55.51
2018-09-24T08:29:59.045Z,54.85
2018-09-24T08:32:33.668Z,54.50
2018-09-24T08:35:08.237Z,54.22
2018-09-24T08:37:42.956Z,53.89
2018-09-24T08:40:17.414Z,53.67
2018-09-24T08:42:52.015Z,52.60
2018-09-24T08:45:26.508Z,53.02
2018-09-24T08:48:01.179Z,52.52
2018-09-24T08:50:35.671Z,52.48
2018-09-24T08:53:10.353Z,52.69
2018-09-24T08:55:44.888Z,51.98
2018-09-24T08:58:19.521Z,51.46
2018-09-24T09:00:54.192Z,50.47
2018-09-24T09:03:28.849Z,51.76
2018-09-24T09:06:03.451Z,52.47
2018-09-24T09:08:37.884Z,51.61
2018-09-24T09:11:12.617Z,52.08
2018-09-24T09:13:47.132Z,52.03
2018-09-24T09:16:21.657Z,51.22
2018-09-24T09:18:56.043Z,49.55
2018-09-24T09:21:30.648Z,47.03
2018-09-24T09:24:05.241Z,45.21
2018-09-24T09:26:39.864Z,43.53
2018-09-24T09:29:14.534Z,45.32
2018-09-24T09:31:48.957Z,44.12
2018-09-24T09:34:23.561Z,46.83
2018-09-24T09:36:58.199Z,42.59
2018-09-24T09:39:32.821Z,41.29
2018-09-24T09:42:07.360Z,40.55
2018-09-24T09:44:41.994Z,40.92
2018-09-24T09:47:16.594Z,39.17
2018-09-24T09:49:51.137Z,40.73
2018-09-24T09:52:25.609Z,39.72
2018-09-24T09:55:00.354Z,40.31
2018-09-24T09:57:34.905Z,39.04
2018-09-24T10:00:09.317Z,37.48
2018-09-24T10:02:44.178Z,37.87
2018-09-24T10:05:18.783Z,43.25
2018-09-24T10:07:53.316Z,40.98
2018-09-24T10:10:27.800Z,40.09
2018-09-24T10:13:02.375Z,42.47
2018-09-24T10:15:36.945Z,41.57
2018-09-24T10:18:11.590Z,41.60
2018-09-24T10:20:46.265Z,40.83
2018-09-24T10:23:20.803Z,41.43
2018-09-24T10:25:55.263Z,40.66
2018-09-24T10:28:29.920Z,37.70
2018-09-24T10:31:04.465Z,38.23
2018-09-24T10:33:38.958Z,38.47
2018-09-24T10:36:13.515Z,38.17
2018-09-24T10:38:48.194Z,37.92
2018-09-24T10:41:22.719Z,38.45
2018-09-24T10:43:57.291Z,38.22
2018-09-24T10:46:31.865Z,37.90
2018-09-24T10:49:06.333Z,39.41
2018-09-24T10:51:40.821Z,39.54
2018-09-24T10:54:15.342Z,41.38
2018-09-24T10:56:49.753Z,41.41
2018-09-24T10:59:24.389Z,42.60
2018-09-24T11:01:58.865Z,42.14
2018-09-24T11:04:33.489Z,42.75
2018-09-24T11:07:08.088Z,43.40
2018-09-24T11:09:42.632Z,43.38
2018-09-24T11:12:17.257Z,43.42
2018-09-24T11:14:51.816Z,44.75
2018-09-24T11:17:26.447Z,44.71
2018-09-24T11:20:00.719Z,44.31
2018-09-24T11:22:35.228Z,45.11
2018-09-24T11:25:09.675Z,43.75
2018-09-24T11:27:44.324Z,42.64
2018-09-24T11:30:18.769Z,41.92
2018-09-24T11:32:53.239Z,42.42
2018-09-24T11:35:27.890Z,43.44
2018-09-24T11:38:02.480Z,43.53
2018-09-24T11:40:36.990Z,43.41
2018-09-24T11:43:11.688Z,44.09
2018-09-24T11:45:46.222Z,43.90
2018-09-24T11:48:20.845Z,43.62
2018-09-24T11:50:55.465Z,44.38
2018-09-24T11:53:29.996Z,43.92
2018-09-24T11:56:04.455Z,43.01
2018-09-24T11:58:39.095Z,43.88
2018-09-24T12:01:13.652Z,43.57
2018-09-24T12:03:48.270Z,42.92
2018-09-24T12:06:22.776Z,44.03
2018-09-24T12:08:57.427Z,43.74
2018-09-24T12:11:31.975Z,42.77
2018-09-24T12:14:06.605Z,42.93
2018-09-24T12:16:41.210Z,43.92
2018-09-24T12:19:15.833Z,42.66
2018-09-24T12:21:50.225Z,41.87
2018-09-24T12:24:24.895Z,43.58
2018-09-24T12:26:59.379Z,43.84
2018-09-24T12:29:33.895Z,44.43
2018-09-24T12:32:08.521Z,44.00
2018-09-24T12:34:43.007Z,44.26
2018-09-24T12:37:17.702Z,45.59
2018-09-24T12:39:52.338Z,46.52
2018-09-24T12:42:26.934Z,47.58
2018-09-24T12:45:01.416Z,46.82
2018-09-24T12:47:35.998Z,46.36
2018-09-24T12:50:10.617Z,46.26
2018-09-24T12:52:45.249Z,45.69
2018-09-24T12:55:19.712Z,45.82
2018-09-24T12:57:54.285Z,44.97
2018-09-24T13:00:28.772Z,45.21
2018-09-24T13:03:03.397Z,45.27
2018-09-24T13:05:38.006Z,46.09
2018-09-24T13:08:12.621Z,47.59
2018-09-24T13:10:47.240Z,48.40
2018-09-24T13:13:21.838Z,48.65
2018-09-24T13:15:56.325Z,49.00
2018-09-24T13:18:30.789Z,48.82
2018-09-24T13:21:05.346Z,45.77
2018-09-24T13:23:39.785Z,43.96
2018-09-24T13:26:14.257Z,43.94
2018-09-24T13:28:48.818Z,43.76
2018-09-24T13:31:23.349Z,44.13
2018-09-24T13:33:57.751Z,44.59
2018-09-24T13:36:32.332Z,43.79
2018-09-24T13:39:06.645Z,45.61
2018-09-24T13:41:41.113Z,45.23
2018-09-24T13:44:15.714Z,45.98
2018-09-24T13:46:50.194Z,44.68
2018-09-24T13:49:24.895Z,43.56
2018-09-24T13:51:59.432Z,43.84
2018-09-24T13:54:33.976Z,44.33
2018-09-24T13:57:08.488Z,44.21
2018-09-24T13:59:42.927Z,45.57
2018-09-24T14:02:17.369Z,46.62
2018-09-24T14:04:51.991Z,47.39
2018-09-24T14:07:26.416Z,47.40
2018-09-24T14:10:00.954Z,47.28
2018-09-24T14:12:35.577Z,44.79
2018-09-24T14:15:10.015Z,44.72
2018-09-24T14:17:44.577Z,46.07
2018-09-24T14:20:18.915Z,45.30
2018-09-24T14:22:53.376Z,45.16
2018-09-24T14:25:27.847Z,45.68
2018-09-24T14:28:02.259Z,45.83
2018-09-24T14:30:43.326Z,46.41
2018-09-24T14:33:17.748Z,46.35
2018-09-24T14:35:52.217Z,47.00
2018-09-24T14:38:26.761Z,47.39
2018-09-24T14:41:01.294Z,47.83
2018-09-24T14:43:35.709Z,48.62
2018-09-24T14:46:10.229Z,47.30
2018-09-24T14:48:44.751Z,45.92
2018-09-24T14:51:19.236Z,46.94
2018-09-24T14:53:53.850Z,47.06
2018-09-24T14:56:28.249Z,47.50
2018-09-24T14:59:02.822Z,48.28
2018-09-24T15:01:37.243Z,48.00
2018-09-24T15:04:11.772Z,47.76
2018-09-24T15:06:46.297Z,47.78
2018-09-24T15:09:20.895Z,48.32
2018-09-24T15:11:55.305Z,48.74
2018-09-24T15:14:29.867Z,48.98
2018-09-24T15:17:04.413Z,48.47
2018-09-24T15:19:38.858Z,49.04
2018-09-24T15:22:13.257Z,49.08
2018-09-24T15:24:47.830Z,48.97
2018-09-24T15:27:22.254Z,50.39
2018-09-24T15:29:56.785Z,50.69
2018-09-24T15:32:31.218Z,50.15
2018-09-24T15:35:05.652Z,50.74
2018-09-24T15:37:40.157Z,50.05
2018-09-24T15:40:14.616Z,50.11
2018-09-24T15:42:49.265Z,49.56
2018-09-24T15:45:23.749Z,49.86
2018-09-24T15:47:58.273Z,50.27
2018-09-24T15:50:32.704Z,50.29
2018-09-24T15:53:07.201Z,50.38
2018-09-24T15:55:41.668Z,51.08
2018-09-24T15:58:16.183Z,51.67
2018-09-24T16:00:50.624Z,52.11
2018-09-24T16:03:25.109Z,51.99
2018-09-24T16:05:59.510Z,51.72
2018-09-24T16:08:34.040Z,51.52
2018-09-24T16:11:08.638Z,51.23
2018-09-24T16:13:43.112Z,52.06
2018-09-24T16:16:17.549Z,52.34
2018-09-24T16:18:52.014Z,52.40
2018-09-24T16:21:26.418Z,52.71
2018-09-24T16:24:00.837Z,53.09
2018-09-24T16:26:35.230Z,52.69
2018-09-24T16:29:09.906Z,53.33
2018-09-24T16:31:44.331Z,53.80
2018-09-24T16:34:18.929Z,53.48
2018-09-24T16:36:53.401Z,54.45
2018-09-24T16:39:27.905Z,54.62
2018-09-24T16:42:02.434Z,54.69
2018-09-24T16:44:37.045Z,54.84
2018-09-24T16:47:11.895Z,54.99
2018-09-24T16:49:46.330Z,55.17
2018-09-24T16:52:20.956Z,55.52
2018-09-24T16:54:55.477Z,55.85
2018-09-24T16:57:29.895Z,55.65
2018-09-24T17:00:04.518Z,55.96
2018-09-24T17:02:39.091Z,56.31
2018-09-24T17:05:13.637Z,56.58
2018-09-24T17:07:48.119Z,56.60
2018-09-24T17:10:22.685Z,56.93
2018-09-24T17:12:57.356Z,57.47
2018-09-24T17:15:31.967Z,57.42
2018-09-24T17:18:06.490Z,57.64
2018-09-24T17:20:40.840Z,57.77
2018-09-24T17:23:15.256Z,57.84
2018-09-24T17:25:49.766Z,58.08
2018-09-24T17:28:24.371Z,58.47
2018-09-24T17:30:58.809Z,58.79
2018-09-24T17:33:33.184Z,59.06
2018-09-24T17:36:07.590Z,59.50
2018-09-24T17:38:41.954Z,59.60
2018-09-24T17:41:16.334Z,59.98
2018-09-24T17:43:50.862Z,60.11
2018-09-24T17:46:25.409Z,60.41
2018-09-24T17:48:59.802Z,60.42
2018-09-24T17:51:34.112Z,60.65
2018-09-24T17:54:08.585Z,60.45
2018-09-24T17:56:43.165Z,60.38
2018-09-24T17:59:17.722Z,60.27
2018-09-24T18:01:52.309Z,60.25
2018-09-24T18:04:26.689Z,61.02
2018-09-24T18:07:01.210Z,61.08
2018-09-24T18:09:35.503Z,61.05
2018-09-24T18:12:10.025Z,61.36
2018-09-24T18:14:44.408Z,61.74
2018-09-24T18:17:18.824Z,61.83
2018-09-24T18:19:53.346Z,61.52
2018-09-24T18:22:27.988Z,61.93
2018-09-24T18:25:02.494Z,62.02
2018-09-24T18:27:37.075Z,62.39
2018-09-24T18:30:11.611Z,62.38
2018-09-24T18:32:46.128Z,62.73
2018-09-24T18:35:20.669Z,62.62
2018-09-24T18:37:55.215Z,62.78
2018-09-24T18:40:29.665Z,62.93
2018-09-24T18:43:04.126Z,62.96
2018-09-24T18:45:38.543Z,63.02
2018-09-24T18:48:12.993Z,62.81
2018-09-24T18:50:47.469Z,62.72
2018-09-24T18:53:22.001Z,62.43
2018-09-24T18:55:56.372Z,62.56
2018-09-24T18:58:31.034Z,62.77
2018-09-24T19:01:05.465Z,63.02
2018-09-24T19:03:39.904Z,62.93
2018-09-24T19:06:14.440Z,63.17
2018-09-24T19:08:48.854Z,62.45
2018-09-24T19:11:27.891Z,63.29
2018-09-24T19:13:57.999Z,63.24
2018-09-24T19:16:32.541Z,63.42
2018-09-24T19:19:07.091Z,63.39
2018-09-24T19:21:41.688Z,63.47
2018-09-24T19:24:16.144Z,63.88
2018-09-24T19:26:50.736Z,63.90
2018-09-24T19:29:25.151Z,64.08
2018-09-24T19:31:59.499Z,63.88
2018-09-24T19:34:34.051Z,63.71
2018-09-24T19:37:08.546Z,63.87
2018-09-24T19:39:43.029Z,63.81
2018-09-24T19:42:17.442Z,63.81
2018-09-24T19:44:51.924Z,63.90
2018-09-24T19:47:26.410Z,63.82
2018-09-24T19:50:00.730Z,64.03
2018-09-24T19:52:35.263Z,63.75
2018-09-24T19:55:09.824Z,64.20
2018-09-24T19:57:44.189Z,63.90
2018-09-24T20:00:18.754Z,63.98
2018-09-24T20:02:53.136Z,63.90
2018-09-24T20:05:27.458Z,63.86
2018-09-24T20:08:01.970Z,63.92
2018-09-24T20:10:36.387Z,63.98
2018-09-24T20:13:10.838Z,63.73
2018-09-24T20:15:45.338Z,63.58
2018-09-24T20:18:19.951Z,63.10
2018-09-24T20:20:54.379Z,63.45
2018-09-24T20:23:28.973Z,63.57
2018-09-24T20:26:03.531Z,63.43
2018-09-24T20:28:38.102Z,63.58
2018-09-24T20:31:12.754Z,63.92
2018-09-24T20:33:47.306Z,63.55
2018-09-24T20:36:21.804Z,63.92
2018-09-24T20:38:56.204Z,63.73
2018-09-24T20:41:30.904Z,63.87
2018-09-24T20:44:05.367Z,63.67
2018-09-24T20:46:39.790Z,64.05
2018-09-24T20:49:14.256Z,63.81
2018-09-24T20:51:48.762Z,63.55
2018-09-24T20:54:23.132Z,63.07
2018-09-24T20:56:57.482Z,63.64
2018-09-24T20:59:31.872Z,63.73
2018-09-24T21:02:06.345Z,63.81
2018-09-24T21:04:40.810Z,63.58
2018-09-24T21:07:15.214Z,63.83
2018-09-24T21:09:49.713Z,63.83
2018-09-24T21:12:24.176Z,64.17
2018-09-24T21:14:58.604Z,63.73
2018-09-24T21:17:33.182Z,63.81
2018-09-24T21:20:07.696Z,64.00
2018-09-24T21:22:42.042Z,64.07
2018-09-24T21:25:16.445Z,64.13
2018-09-24T21:27:50.977Z,64.43
2018-09-24T21:37:34.047Z,64.95
2018-09-24T21:40:08.445Z,64.96
2018-09-24T21:42:42.998Z,65.25
2018-09-24T21:45:17.439Z,65.46
2018-09-24T21:47:51.878Z,65.50
2018-09-24T21:50:26.424Z,65.48
2018-09-24T21:53:01.089Z,65.39
2018-09-24T21:55:35.460Z,65.31
2018-09-24T21:58:09.963Z,65.36
2018-09-24T22:00:44.513Z,65.49
2018-09-24T22:03:19.159Z,65.16
2018-09-24T22:05:53.654Z,64.87
2018-09-24T22:08:28.021Z,64.79
2018-09-24T22:11:02.420Z,64.85
2018-09-24T22:13:37.079Z,64.85
2018-09-24T22:16:11.852Z,64.33
2018-09-24T22:18:46.402Z,64.40
2018-09-24T22:21:20.837Z,64.54
2018-09-24T22:23:55.427Z,64.45
2018-09-24T22:26:29.994Z,64.27
2018-09-24T22:29:04.593Z,64.30
2018-09-24T22:31:39.175Z,63.79
2018-09-24T22:34:13.712Z,63.52
2018-09-24T22:36:48.176Z,63.93
2018-09-24T22:39:22.649Z,63.67
2018-09-24T22:41:57.749Z,63.92
2018-09-24T22:44:32.386Z,64.17
2018-09-24T22:47:06.777Z,63.75
2018-09-24T22:49:41.301Z,63.88
2018-09-24T22:52:15.778Z,64.09
2018-09-24T22:54:50.358Z,63.88
2018-09-24T22:57:24.984Z,63.98
2018-09-24T22:59:59.386Z,64.54
2018-09-24T23:02:33.896Z,64.30
2018-09-24T23:05:08.373Z,64.83
2018-09-24T23:07:42.866Z,64.92
2018-09-24T23:10:17.365Z,64.83
2018-09-24T23:12:51.783Z,64.97
2018-09-24T23:15:26.181Z,65.05
2018-09-24T23:18:00.549Z,65.09
2018-09-24T23:20:35.071Z,65.20
2018-09-24T23:23:09.670Z,65.25
2018-09-24T23:25:44.184Z,65.61
2018-09-24T23:28:18.598Z,65.48
2018-09-24T23:30:52.978Z,65.37
2018-09-24T23:33:27.522Z,65.05
2018-09-24T23:36:02.117Z,65.12
2018-09-24T23:38:36.685Z,65.35
2018-09-24T23:41:11.105Z,65.22
2018-09-24T23:43:45.609Z,65.60
2018-09-24T23:46:20.032Z,65.60
2018-09-24T23:48:54.611Z,65.48
2018-09-24T23:51:29.098Z,65.39
2018-09-24T23:54:03.518Z,65.31
2018-09-24T23:56:38.093Z,65.07
2018-09-24T23:59:12.490Z,65.18
